createdAt,value
2018-02-14T00:07:03.928Z,10.23
2018-02-14T00:17:05.608Z,12.63
2018-02-14T00:27:07.313Z,13.50
2018-02-14T00:37:08.859Z,12.20
2018-02-14T00:47:10.501Z,12.83
2018-02-14T00:57:14.601Z,12.67
2018-02-14T01:07:20.382Z,11.00
2018-02-14T01:17:22.917Z,12.10
2018-02-14T01:27:24.550Z,11.93
2018-02-14T01:37:26.821Z,11.43
2018-02-14T01:47:28.345Z,12.10
2018-02-14T01:57:29.950Z,12.33
2018-02-14T02:07:31.457Z,12.97
2018-02-14T02:17:33.036Z,12.60
2018-02-14T02:27:34.575Z,12.57
2018-02-14T02:37:37.217Z,13.90
2018-02-14T02:47:38.721Z,11.97
2018-02-14T02:57:40.288Z,12.23
2018-02-14T03:07:41.836Z,12.10
2018-02-14T03:17:43.392Z,12.80
2018-02-14T03:27:45.685Z,12.20
2018-02-14T03:37:47.294Z,13.07
2018-02-14T03:47:48.802Z,12.37
2018-02-14T03:57:50.567Z,12.67
2018-02-14T04:07:52.144Z,13.30
2018-02-14T04:17:53.724Z,12.20
2018-02-14T04:27:56.033Z,11.37
2018-02-14T04:37:58.361Z,11.67
2018-02-14T04:47:59.928Z,13.43
2018-02-14T04:58:01.540Z,14.87
2018-02-14T05:08:03.146Z,12.13
2018-02-14T05:18:04.657Z,13.60
2018-02-14T05:28:06.924Z,12.10
2018-02-14T05:38:08.473Z,11.93
2018-02-14T05:48:11.112Z,13.50
2018-02-14T05:58:12.753Z,13.33
2018-02-14T06:08:14.278Z,13.33
2018-02-14T06:18:15.842Z,12.73
2018-02-14T06:28:17.470Z,13.53
2018-02-14T06:38:19.023Z,13.40
2018-02-14T06:48:20.578Z,13.27
2018-02-14T06:58:22.162Z,11.97
2018-02-14T07:08:23.798Z,13.87
2018-02-14T07:18:26.078Z,12.97
2018-02-14T07:28:27.681Z,14.10
2018-02-14T07:38:29.253Z,12.67
2018-02-14T07:48:30.781Z,13.17
2018-02-14T07:58:32.325Z,14.07
2018-02-14T08:08:34.582Z,14.13
2018-02-14T08:18:36.184Z,15.03
2018-02-14T08:28:37.828Z,14.87
2018-02-14T08:38:40.211Z,18.33
2018-02-14T08:48:41.826Z,14.20
2018-02-14T08:58:43.360Z,15.53
2018-02-14T09:08:45.639Z,15.10
2018-02-14T09:18:47.154Z,16.13
2018-02-14T09:28:48.784Z,13.87
2018-02-14T09:38:50.349Z,13.50
2018-02-14T09:48:51.933Z,16.10
2018-02-14T09:58:53.544Z,14.57
2018-02-14T10:08:55.021Z,15.70
2018-02-14T10:18:56.629Z,15.87
2018-02-14T10:28:58.226Z,13.87
2018-02-14T10:38:59.950Z,14.23
2018-02-14T10:49:01.549Z,12.63
2018-02-14T10:59:03.213Z,11.73
2018-02-14T11:09:04.792Z,9.30
2018-02-14T11:19:06.270Z,10.03
2018-02-14T11:29:07.987Z,11.07
2018-02-14T11:39:10.310Z,11.50
2018-02-14T11:49:11.872Z,13.00
2018-02-14T11:59:13.436Z,11.57
2018-02-14T12:09:15.117Z,13.23
2018-02-14T12:19:16.697Z,11.87
2018-02-14T12:29:18.998Z,12.40
2018-02-14T12:39:20.533Z,12.30
2018-02-14T12:49:22.116Z,12.93
2018-02-14T12:59:24.704Z,12.87
2018-02-14T13:09:26.336Z,13.97
2018-02-14T13:19:27.896Z,13.73
2018-02-14T13:29:29.483Z,13.13
2018-02-14T13:39:31.801Z,11.70
2018-02-14T13:49:33.320Z,13.50
2018-02-14T13:59:35.007Z,12.33
2018-02-14T14:09:36.617Z,11.70
2018-02-14T14:19:38.203Z,10.73
2018-02-14T14:29:40.046Z,10.10
2018-02-14T14:39:42.580Z,10.47
2018-02-14T14:49:44.220Z,10.87
2018-02-14T14:59:45.824Z,10.77
2018-02-14T15:09:47.373Z,10.37
2018-02-14T15:19:48.984Z,7.27
2018-02-14T15:29:50.554Z,8.30
2018-02-14T15:39:52.010Z,7.67
2018-02-14T15:49:53.572Z,7.57
2018-02-14T15:59:55.157Z,8.30
2018-02-14T16:09:56.681Z,8.67
2018-02-14T16:20:00.310Z,8.53
2018-02-14T16:30:01.910Z,10.20
2018-02-14T16:40:03.539Z,10.03
2018-02-14T16:50:05.901Z,11.90
2018-02-14T17:00:07.513Z,14.27
2018-02-14T17:10:09.137Z,14.50
2018-02-14T17:20:10.714Z,13.77
2018-02-14T17:30:12.264Z,11.37
2018-02-14T17:40:14.568Z,10.27
2018-02-14T17:50:16.188Z,11.00
2018-02-14T18:00:19.173Z,10.90
2018-02-14T18:10:20.719Z,13.20
2018-02-14T18:20:23.016Z,13.03
2018-02-14T18:30:24.648Z,13.77
2018-02-14T18:40:26.224Z,13.70
2018-02-14T18:50:27.858Z,13.20
2018-02-14T19:00:29.462Z,14.87
2018-02-14T19:10:31.210Z,13.70
2018-02-14T19:20:32.806Z,14.10
2018-02-14T19:30:34.383Z,15.57
2018-02-14T19:40:35.974Z,15.40
2018-02-14T19:50:37.548Z,18.50
2018-02-14T20:00:39.153Z,18.13
2018-02-14T20:10:41.469Z,18.37
2018-02-14T20:20:43.808Z,19.30
2018-02-14T20:30:45.401Z,18.10
2018-02-14T20:40:46.977Z,19.90
2018-02-14T20:50:48.644Z,21.50
2018-02-14T21:00:50.385Z,19.37
2018-02-14T21:10:52.735Z,19.70
2018-02-14T21:20:54.297Z,17.70
2018-02-14T21:30:55.887Z,20.80
2018-02-14T21:40:57.531Z,17.40
2018-02-14T21:51:01.981Z,18.90
2018-02-14T22:01:06.053Z,19.33
2018-02-14T22:11:08.821Z,19.10
2018-02-14T22:21:10.379Z,19.50
2018-02-14T22:31:12.314Z,21.40
2018-02-14T22:41:13.872Z,20.43
2018-02-14T22:51:16.181Z,20.60
2018-02-14T23:01:17.738Z,22.20
2018-02-14T23:11:19.275Z,20.53
2018-02-14T23:21:20.895Z,21.03
2018-02-14T23:31:23.178Z,21.83
2018-02-14T23:41:24.750Z,21.70
2018-02-14T23:51:26.348Z,21.97
